Strona główna
METAR-TAF:

METAR-TAF

Lotnisko :

Port lotniczy Bournemouth

Bournemouth, Anglia

Szerokość geograficzna: 50-47N, Długość geograficzna: 001-50W, wysokość: 11 m

Aktualna obserwacja pogody

Raport powstał 15 minut temu, godzina 16:50 UTC
Wiatr 5 kt od północ, zmienny między północno-północny zachód i północny wschód
Temperatura 7°C
Wilgotność 93%
Ciśnienie 1015 hPa
Widzialność 10 km lub więcej
Mało chmury na wysokości 1300 ft

METAR: EGHH 251650Z 36005KT 330V040 9999 FEW013 07/06 Q1015

czas: 17:05 (17:05 UTC)

Prognoza

Raport powstał 3 godziny i 6 minut temu, godzina 13:59 UTC
Prognoza ważna od 25 godzina 15 UTC do 25 godzina 22 UTC
Wiatr 6 kt od północno-północny zachód
Widzialność 10 km lub więcej
Rozproszone chmury na wysokości 2000 ft
Przejściowo
od 25 godzina 15 UTC do 25 godzina 18 UTC
Przerywane chmury na wysokości 1200 ft

TAF: EGHH 251359Z 2515/2522 33006KT 9999 SCT020 TEMPO 2515/2518 BKN012

Obserwacja i prognoza pogody dla ponad 4000 lotnisk (raport METAR i TAF).

Dostępne stacje oznaczono żółtymi i czerwonymi punktami na mapie.

Najedź kursorem aby zobaczyć nazwę stacji.

Kliknij aby zobaczyć obserwacje i prognozy pogody.

Aby zmienić mapę: kliknij na zielony przycisk z czarnym krzyżykiem, aby powiększyć; na zielony przycisk z myślnikiem, aby pomniejszyć; na zielone strzałki, aby przejść do map sąsiednich.


METAR-TAF: